Time;durP1;ratioP1;P1;durP2;ratioP2;P2;SDS_P1;SDS_P2;PMS_P1;PMS_P2;Temp;Humidity;BMP_temperature;BMP_pressure;BME280_temperature;BME280_humidity;BME280_pressure;Samples;Min_cycle;Max_cycle;Signal;HPM_P1;HPM_P2
2022/07/22 00:01:00;;;;;;;3.35;3.00;;;;;;;16.95;100.00;100114.66;1734895;81;21013;-88
2022/07/22 00:03:27;;;;;;;4.30;3.12;;;;;;;16.91;100.00;100110.69;1732020;81;21018;-88
2022/07/22 00:05:54;;;;;;;4.12;3.25;;;;;;;16.88;100.00;100114.48;1730082;83;21521;-89
2022/07/22 00:08:23;;;;;;;4.22;3.50;;;;;;;16.86;100.00;100113.34;1730835;83;22006;-89
2022/07/22 00:10:51;;;;;;;4.30;3.20;;;;;;;16.85;100.00;100112.20;1733176;82;21025;-89
2022/07/22 00:13:20;;;;;;;3.65;3.35;;;;;;;16.84;100.00;100114.00;1728264;83;21090;-89
2022/07/22 00:15:49;;;;;;;4.33;3.30;;;;;;;16.84;100.00;100115.82;1730346;81;20982;-88
2022/07/22 00:18:16;;;;;;;3.70;3.35;;;;;;;16.86;100.00;100108.09;1733740;81;21079;-88
2022/07/22 00:20:44;;;;;;;3.85;3.50;;;;;;;16.89;100.00;100106.92;1747496;81;21178;-87
2022/07/22 00:23:11;;;;;;;7.17;4.10;;;;;;;16.92;100.00;100114.48;1723129;82;21066;-89
2022/07/22 00:25:39;;;;;;;3.77;3.37;;;;;;;16.93;100.00;100119.27;1723307;82;20964;-88
2022/07/22 00:28:06;;;;;;;4.62;3.67;;;;;;;16.92;100.00;100119.74;1723495;82;21171;-88
2022/07/22 00:30:34;;;;;;;6.25;4.30;;;;;;;16.90;100.00;100120.40;1723461;82;21067;-88
2022/07/22 00:33:01;;;;;;;4.20;3.80;;;;;;;16.89;100.00;100125.33;1723240;83;21790;-88
2022/07/22 00:35:28;;;;;;;4.30;3.90;;;;;;;16.86;100.00;100125.69;1722913;83;20956;-88
2022/07/22 00:37:55;;;;;;;5.78;4.05;;;;;;;16.82;100.00;100125.20;1725425;82;21070;-89
2022/07/22 00:40:23;;;;;;;7.75;4.65;;;;;;;16.80;100.00;100135.05;1728384;83;21101;-88
2022/07/22 00:42:50;;;;;;;5.47;4.12;;;;;;;16.79;100.00;100133.89;1712787;83;20957;-89
2022/07/22 00:45:17;;;;;;;4.28;3.90;;;;;;;16.77;100.00;100129.31;1712893;83;21162;-89
2022/07/22 00:47:45;;;;;;;4.70;4.30;;;;;;;16.75;100.00;100129.46;1712625;83;21520;-88
2022/07/22 00:50:14;;;;;;;4.92;4.25;;;;;;;16.75;100.00;100128.66;1713193;83;21029;-89
2022/07/22 00:52:42;;;;;;;5.22;4.72;;;;;;;16.74;100.00;100132.27;1712650;83;21064;-88
2022/07/22 00:55:10;;;;;;;4.70;4.28;;;;;;;16.74;100.00;100127.84;1712812;83;21072;-88
2022/07/22 00:57:37;;;;;;;5.22;4.65;;;;;;;16.74;100.00;100133.11;1712905;83;21252;-88
2022/07/22 01:00:10;;;;;;;6.40;5.30;;;;;;;16.72;100.00;100134.56;1712741;83;21068;-88
2022/07/22 01:02:37;;;;;;;5.50;4.72;;;;;;;16.74;100.00;100134.89;1712406;83;21652;-88
2022/07/22 01:05:05;;;;;;;7.08;4.92;;;;;;;16.76;100.00;100134.24;1712510;83;21056;-88
2022/07/22 01:07:33;;;;;;;5.60;5.10;;;;;;;16.77;100.00;100135.89;1713113;83;21585;-89
2022/07/22 01:10:00;;;;;;;6.15;5.55;;;;;;;16.79;100.00;100129.95;1712827;83;21147;-89
2022/07/22 01:12:27;;;;;;;6.05;5.47;;;;;;;16.81;100.00;100143.75;1712904;83;21073;-89
2022/07/22 01:14:54;;;;;;;6.03;5.30;;;;;;;16.83;100.00;100139.16;1712853;83;21029;-89
2022/07/22 01:17:21;;;;;;;9.08;5.70;;;;;;;16.85;100.00;100134.55;1712608;83;21116;-89
2022/07/22 01:19:48;;;;;;;6.37;5.78;;;;;;;16.89;100.00;100145.05;1712539;83;21036;-89
2022/07/22 01:22:17;;;;;;;8.35;6.10;;;;;;;16.90;100.00;100137.49;1712642;83;21112;-90
2022/07/22 01:24:44;;;;;;;7.40;6.70;;;;;;;16.92;100.00;100136.00;1712528;83;21538;-89
2022/07/22 01:27:11;;;;;;;6.45;5.70;;;;;;;16.93;100.00;100139.83;1713094;83;21120;-90
2022/07/22 01:29:41;;;;;;;7.45;6.15;;;;;;;16.94;100.00;100136.21;1712610;83;21048;-89
2022/07/22 01:32:08;;;;;;;7.10;6.28;;;;;;;16.94;100.00;100141.47;1712715;83;21013;-88
2022/07/22 01:34:35;;;;;;;7.22;6.53;;;;;;;16.93;100.00;100137.67;1713001;83;21210;-89
2022/07/22 01:37:03;;;;;;;6.83;6.22;;;;;;;16.90;100.00;100135.37;1709933;83;21045;-88
2022/07/22 01:39:30;;;;;;;9.75;6.62;;;;;;;16.87;100.00;100141.28;1701687;84;21009;-89
2022/07/22 01:41:58;;;;;;;7.50;6.70;;;;;;;16.84;100.00;100142.11;1701401;84;21057;-89
2022/07/22 01:44:25;;;;;;;7.33;6.55;;;;;;;16.80;100.00;100143.42;1701606;84;21081;-89
2022/07/22 01:46:53;;;;;;;6.95;6.35;;;;;;;16.76;100.00;100137.68;1701712;84;21236;-89
2022/07/22 01:49:22;;;;;;;7.25;6.45;;;;;;;16.74;100.00;100140.99;1701644;84;21073;-89
2022/07/22 01:51:50;;;;;;;6.90;6.25;;;;;;;16.72;100.00;100145.08;1701892;84;20982;-89
2022/07/22 01:54:18;;;;;;;7.12;6.37;;;;;;;16.72;100.00;100147.71;1701511;84;21452;-88
2022/07/22 01:56:46;;;;;;;7.80;6.42;;;;;;;16.76;100.00;100147.39;1701564;84;21014;-89
2022/07/22 01:59:13;;;;;;;6.85;6.25;;;;;;;16.77;100.00;100147.72;1701743;84;21199;-89
2022/07/22 02:01:40;;;;;;;7.10;6.40;;;;;;;16.79;100.00;100149.66;1701425;84;21001;-89
2022/07/22 02:04:07;;;;;;;7.25;6.55;;;;;;;16.80;100.00;100144.73;1701371;84;21100;-89
2022/07/22 02:06:35;;;;;;;7.05;6.45;;;;;;;16.80;100.00;100144.27;1701530;84;21005;-89
2022/07/22 02:09:03;;;;;;;8.33;6.42;;;;;;;16.79;100.00;100151.81;1701374;84;21483;-88
2022/07/22 02:11:32;;;;;;;7.65;6.78;;;;;;;16.79;100.00;100149.66;1697103;84;21808;-89
2022/07/22 02:14:01;;;;;;;8.20;6.65;;;;;;;16.78;100.00;100149.36;1701315;84;21061;-88
2022/07/22 02:16:30;;;;;;;6.97;6.28;;;;;;;16.75;100.00;100151.81;1701531;84;21101;-89
2022/07/22 02:18:57;;;;;;;7.40;6.70;;;;;;;16.73;100.00;100159.06;1701501;84;21112;-89
2022/07/22 02:21:25;;;;;;;7.20;6.50;;;;;;;16.67;100.00;100157.91;1701741;84;21103;-89
2022/07/22 02:23:54;;;;;;;6.97;6.28;;;;;;;16.61;100.00;100157.27;1697467;84;21818;-89
2022/07/22 02:26:21;;;;;;;6.87;6.17;;;;;;;16.54;100.00;100158.42;1701810;84;21093;-88
2022/07/22 02:28:48;;;;;;;6.65;6.05;;;;;;;16.50;100.00;100158.44;1701568;84;21022;-88
2022/07/22 02:31:15;;;;;;;6.30;5.70;;;;;;;16.44;100.00;100154.33;1701925;84;21556;-89
2022/07/22 02:33:43;;;;;;;7.72;6.20;;;;;;;16.39;100.00;100161.39;1701622;84;21136;-88
2022/07/22 02:36:10;;;;;;;7.03;6.33;;;;;;;16.34;100.00;100160.56;1701477;84;21212;-89
2022/07/22 02:38:37;;;;;;;8.13;6.90;;;;;;;16.31;100.00;100162.70;1701469;84;21086;-88
2022/07/22 02:41:05;;;;;;;7.22;6.53;;;;;;;16.29;100.00;100169.44;1701806;84;21064;-89
2022/07/22 02:43:32;;;;;;;7.08;6.40;;;;;;;16.27;100.00;100169.25;1677026;84;21959;-89
2022/07/22 02:45:59;;;;;;;9.75;6.78;;;;;;;16.26;100.00;100172.37;1701499;84;21022;-88
2022/07/22 02:48:27;;;;;;;7.08;6.37;;;;;;;16.23;100.00;100172.22;1701506;84;21178;-88
2022/07/22 02:50:54;;;;;;;9.35;7.00;;;;;;;16.23;100.00;100174.01;1701452;84;20998;-88
2022/07/22 02:53:23;;;;;;;7.42;6.72;;;;;;;16.21;100.00;100182.56;1695308;84;21021;-88
2022/07/22 02:55:51;;;;;;;8.63;7.10;;;;;;;16.20;100.00;100176.47;1701487;84;21680;-88
2022/07/22 02:58:18;;;;;;;9.40;7.20;;;;;;;16.22;100.00;100171.08;1701913;84;21057;-88
2022/07/22 03:00:45;;;;;;;10.55;7.50;;;;;;;16.26;100.00;100178.14;1701336;84;21179;-88
2022/07/22 03:03:12;;;;;;;7.47;6.78;;;;;;;16.29;100.00;100185.20;1701372;84;21445;-89
2022/07/22 03:05:39;;;;;;;10.13;7.67;;;;;;;16.32;100.00;100186.17;1701877;84;21022;-88
2022/07/22 03:08:11;;;;;;;8.90;7.42;;;;;;;16.36;100.00;100186.19;1697803;84;21019;-89
2022/07/22 03:10:38;;;;;;;8.55;7.75;;;;;;;16.38;100.00;100184.19;1701555;84;21022;-89
2022/07/22 03:13:06;;;;;;;7.72;6.95;;;;;;;16.41;100.00;100188.33;1701353;84;21082;-88
2022/07/22 03:15:33;;;;;;;8.20;7.40;;;;;;;16.44;100.00;100187.98;1701586;84;21022;-88
2022/07/22 03:18:03;;;;;;;8.25;7.45;;;;;;;16.48;100.00;100189.78;1701390;84;21089;-89
2022/07/22 03:20:31;;;;;;;9.83;7.45;;;;;;;16.52;100.00;100192.42;1701640;84;21737;-88
2022/07/22 03:22:59;;;;;;;8.00;7.20;;;;;;;16.55;100.00;100194.23;1701376;84;21064;-89
2022/07/22 03:25:30;;;;;;;9.83;7.17;;;;;;;16.58;100.00;100191.77;1701556;84;21108;-88
2022/07/22 03:27:58;;;;;;;8.48;7.25;;;;;;;16.61;100.00;100195.38;1701061;84;21029;-88
2022/07/22 03:30:25;;;;;;;8.70;7.80;;;;;;;16.63;100.00;100193.39;1701388;84;21057;-86
2022/07/22 03:32:53;;;;;;;8.45;7.60;;;;;;;16.66;100.00;100199.64;1701366;84;21069;-88
2022/07/22 03:35:21;;;;;;;8.70;7.80;;;;;;;16.69;100.00;100200.64;1701502;84;21124;-87
2022/07/22 03:37:49;;;;;;;8.58;7.78;;;;;;;16.72;100.00;100206.05;1677372;84;21334;-89
2022/07/22 03:40:17;;;;;;;10.32;8.03;;;;;;;16.74;100.00;100208.03;1701546;84;21507;-88
2022/07/22 03:42:44;;;;;;;10.48;9.03;;;;;;;16.76;100.00;100205.23;1677359;84;21098;-89
2022/07/22 03:45:14;;;;;;;10.63;9.53;;;;;;;16.79;100.00;100210.97;1701347;84;20966;-89
2022/07/22 03:47:41;;;;;;;9.93;8.93;;;;;;;16.81;100.00;100212.11;1701602;84;20978;-88
2022/07/22 03:50:09;;;;;;;10.72;9.68;;;;;;;16.82;100.00;100209.81;1701275;84;21859;-88
2022/07/22 03:52:37;;;;;;;16.95;10.40;;;;;;;16.85;100.00;100209.50;1701712;84;21014;-88
2022/07/22 03:55:07;;;;;;;11.05;9.98;;;;;;;16.86;100.00;100215.08;1697737;84;21102;-88
2022/07/22 03:57:35;;;;;;;13.93;9.38;;;;;;;16.87;100.00;100214.07;1701743;84;21033;-88
2022/07/22 04:00:06;;;;;;;13.08;10.63;;;;;;;16.90;100.00;100220.33;1697748;84;21105;-88
2022/07/22 04:02:36;;;;;;;11.20;9.98;;;;;;;16.93;100.00;100221.34;1697958;84;21338;-89
2022/07/22 04:05:04;;;;;;;12.25;10.60;;;;;;;16.95;100.00;100215.41;1677193;84;21599;-88
2022/07/22 04:20:54;;;;;;;11.25;10.15;;;;;;;17.53;100.00;100224.97;1827287;77;22445;-88
2022/07/22 04:23:33;;;;;;;10.78;9.50;;;;;;;17.55;100.00;100226.91;1789415;77;21088;-89
2022/07/22 04:26:14;;;;;;;10.55;9.35;;;;;;;17.56;100.00;100233.34;1808459;77;21002;-88
2022/07/22 04:28:42;;;;;;;9.58;8.73;;;;;;;17.57;100.00;100234.99;1804182;77;20996;-89
2022/07/22 04:31:10;;;;;;;10.25;8.35;;;;;;;17.56;100.00;100236.45;1802785;77;21030;-89
2022/07/22 04:33:40;;;;;;;9.25;7.95;;;;;;;17.54;100.00;100241.09;1785920;78;20934;-90
2022/07/22 04:36:08;;;;;;;9.38;8.40;;;;;;;17.55;100.00;100246.66;1797479;77;21557;-88
2022/07/22 04:38:35;;;;;;;9.33;8.43;;;;;;;17.57;100.00;100244.69;1799209;77;21151;-89
2022/07/22 04:41:06;;;;;;;8.88;7.65;;;;;;;17.58;100.00;100244.53;1802471;77;20902;-88
2022/07/22 04:43:34;;;;;;;9.95;8.30;;;;;;;17.63;100.00;100241.36;1826846;77;21445;-89
2022/07/22 04:46:01;;;;;;;9.05;8.18;;;;;;;17.68;100.00;100245.64;1813166;77;21006;-88
2022/07/22 04:48:30;;;;;;;9.45;8.48;;;;;;;17.72;100.00;100239.03;1810721;77;20998;-88
2022/07/22 04:51:01;;;;;;;9.78;8.25;;;;;;;17.77;100.00;100247.25;1817408;77;21107;-88
2022/07/22 04:53:29;;;;;;;8.73;8.03;;;;;;;17.83;100.00;100244.40;1813140;77;21002;-88
2022/07/22 04:55:58;;;;;;;9.55;8.18;;;;;;;17.87;100.00;100247.03;1807035;77;21497;-88
2022/07/22 04:58:25;;;;;;;9.23;8.40;;;;;;;17.92;100.00;100250.47;1828463;77;20987;-89
2022/07/22 05:00:52;;;;;;;8.13;7.42;;;;;;;17.94;100.00;100247.98;1818127;77;20927;-89
2022/07/22 05:03:19;;;;;;;7.85;7.15;;;;;;;18.01;100.00;100246.00;1822757;77;21128;-89
2022/07/22 05:05:46;;;;;;;8.00;7.22;;;;;;;18.07;100.00;100246.61;1816395;77;20965;-88
2022/07/22 05:08:16;;;;;;;7.30;6.60;;;;;;;18.22;100.00;100240.95;1819622;77;21044;-89
2022/07/22 05:10:44;;;;;;;7.30;6.60;;;;;;;18.44;100.00;100236.66;1825952;77;21006;-87
2022/07/22 05:13:14;;;;;;;6.72;6.08;;;;;;;18.62;100.00;100232.90;1815232;77;21017;-88
2022/07/22 05:15:41;;;;;;;7.67;7.08;;;;;;;18.83;100.00;100240.14;1821192;77;21126;-88
2022/07/22 05:18:08;;;;;;;8.53;6.90;;;;;;;19.01;100.00;100245.11;1815045;77;21557;-84
2022/07/22 05:20:37;;;;;;;8.15;7.30;;;;;;;19.11;100.00;100232.96;1790153;77;21032;-88
2022/07/22 05:23:06;;;;;;;8.93;8.15;;;;;;;19.17;100.00;100235.38;1786197;78;21091;-88
2022/07/22 05:25:34;;;;;;;9.38;8.58;;;;;;;19.22;100.00;100239.12;1798609;78;21075;-90
2022/07/22 05:28:02;;;;;;;9.55;8.70;;;;;;;19.25;100.00;100228.70;1786718;78;21153;-89
2022/07/22 05:30:34;;;;;;;8.93;8.13;;;;;;;19.26;100.00;100238.77;1787881;79;21056;-90
2022/07/22 05:33:03;;;;;;;9.05;8.25;;;;;;;19.30;100.00;100238.23;1777415;79;21052;-90
2022/07/22 05:35:32;;;;;;;8.20;7.60;;;;;;;19.31;100.00;100233.76;1782879;79;21024;-89
2022/07/22 05:38:00;;;;;;;8.30;7.50;;;;;;;19.23;100.00;100226.73;1783407;78;21115;-89
2022/07/22 05:40:28;;;;;;;10.03;7.65;;;;;;;19.14;100.00;100241.84;1782187;79;21980;-89
2022/07/22 05:42:55;;;;;;;7.85;7.30;;;;;;;19.06;100.00;100244.57;1775180;79;21562;-90
2022/07/22 05:45:22;;;;;;;8.90;7.45;;;;;;;18.99;100.00;100243.14;1778222;79;21084;-90
2022/07/22 05:47:50;;;;;;;8.28;6.53;;;;;;;19.01;100.00;100250.89;1775427;79;21511;-88
2022/07/22 05:50:17;;;;;;;6.83;6.22;;;;;;;19.21;100.00;100244.08;1777200;78;21343;-87
2022/07/22 05:52:45;;;;;;;7.08;6.40;;;;;;;19.51;100.00;100237.98;1722083;81;22524;-89
2022/07/22 05:55:12;;;;;;;8.03;7.35;;;;;;;19.75;100.00;100234.20;1773744;79;21067;-88
2022/07/22 05:57:41;;;;;;;7.20;6.60;;;;;;;19.87;100.00;100230.61;1772632;79;21061;-90
2022/07/22 06:00:09;;;;;;;7.47;6.62;;;;;;;19.83;100.00;100236.73;1762224;79;21074;-89
2022/07/22 06:02:39;;;;;;;7.45;6.85;;;;;;;19.70;100.00;100243.20;1764537;79;21498;-89
2022/07/22 06:05:07;;;;;;;8.60;7.80;;;;;;;19.61;100.00;100236.38;1727401;81;21368;-88
2022/07/22 06:07:34;;;;;;;8.45;7.65;;;;;;;19.61;100.00;100239.02;1762026;79;21005;-88
2022/07/22 06:10:04;;;;;;;8.85;7.95;;;;;;;19.60;100.00;100238.69;1774974;78;21530;-89
2022/07/22 06:12:34;;;;;;;8.85;7.95;;;;;;;19.65;100.00;100244.26;1752286;79;21002;-90
2022/07/22 06:15:03;;;;;;;8.65;7.85;;;;;;;19.73;100.00;100242.00;1776644;79;21498;-88
2022/07/22 06:17:31;;;;;;;9.10;8.33;;;;;;;19.85;100.00;100251.14;1774138;79;21209;-89
2022/07/22 06:19:59;;;;;;;8.30;7.60;;;;;;;20.00;100.00;100246.63;1751610;80;21104;-90
2022/07/22 06:22:27;;;;;;;9.53;8.73;;;;;;;20.09;100.00;100243.36;1772621;77;21014;-86
2022/07/22 06:24:56;;;;;;;8.35;7.55;;;;;;;20.16;100.00;100242.12;1788965;78;21842;-87
2022/07/22 06:27:23;;;;;;;9.55;8.65;;;;;;;20.20;100.00;100250.49;1814056;77;21491;-87
2022/07/22 06:29:51;;;;;;;9.20;8.38;;;;;;;20.17;100.00;100245.89;1817594;77;21891;-87
2022/07/22 06:32:19;;;;;;;8.48;7.62;;;;;;;20.12;100.00;100248.28;1814463;77;21029;-86
2022/07/22 06:34:47;;;;;;;8.33;7.60;;;;;;;20.15;100.00;100247.09;1817404;77;21519;-85
2022/07/22 06:37:14;;;;;;;8.08;7.28;;;;;;;20.30;100.00;100235.15;1815287;77;21061;-86
2022/07/22 06:39:41;;;;;;;8.48;7.28;;;;;;;20.48;100.00;100238.14;1809999;77;21056;-86
2022/07/22 06:42:25;;;;;;;6.90;6.40;;;;;;;20.50;100.00;100231.37;1821557;77;21439;-88
2022/07/22 06:45:12;;;;;;;7.67;6.80;;;;;;;20.31;100.00;100228.86;1813429;77;21470;-86
2022/07/22 06:47:44;;;;;;;7.83;7.03;;;;;;;20.03;100.00;100232.22;1770391;77;20985;-85
2022/07/22 06:50:12;;;;;;;7.42;6.72;;;;;;;19.84;100.00;100233.61;1802389;77;21037;-85
2022/07/22 06:52:43;;;;;;;7.20;6.60;;;;;;;19.82;100.00;100232.97;1814817;77;21194;-86
2022/07/22 06:55:11;;;;;;;8.85;7.03;;;;;;;19.92;100.00;100230.05;1824704;77;21543;-85
2022/07/22 06:57:40;;;;;;;7.58;6.97;;;;;;;20.05;100.00;100229.38;1811068;77;21562;-86
2022/07/22 07:00:09;;;;;;;7.22;6.53;;;;;;;20.24;100.00;100232.75;1811991;77;21022;-86
2022/07/22 07:02:38;;;;;;;7.30;6.62;;;;;;;20.51;100.00;100225.55;1807536;77;21054;-85
2022/07/22 07:05:06;;;;;;;6.58;6.12;;;;;;;20.63;100.00;100234.63;1821807;77;21395;-86
2022/07/22 07:07:35;;;;;;;6.50;6.00;;;;;;;20.65;100.00;100225.48;1813836;77;21272;-87
2022/07/22 07:10:03;;;;;;;6.67;6.10;;;;;;;20.70;100.00;100226.23;1828213;77;20943;-86
2022/07/22 07:12:37;;;;;;;6.40;5.87;;;;;;;20.74;100.00;100233.31;1830278;77;21010;-86
2022/07/22 07:15:08;;;;;;;6.75;6.25;;;;;;;20.58;100.00;100233.04;1826124;77;21582;-86
2022/07/22 07:17:36;;;;;;;6.33;5.87;;;;;;;20.39;100.00;100242.44;1799718;79;20991;-85
2022/07/22 07:20:07;;;;;;;6.55;5.95;;;;;;;20.41;100.00;100245.72;1785968;79;21152;-85
2022/07/22 07:22:36;;;;;;;6.05;5.55;;;;;;;20.52;100.00;100239.09;1828404;77;20970;-85
2022/07/22 07:25:08;;;;;;;6.25;5.75;;;;;;;20.57;100.00;100235.37;1797370;77;20959;-89
2022/07/22 07:27:36;;;;;;;5.65;5.25;;;;;;;20.66;100.00;100234.23;1777388;80;21042;-87
2022/07/22 07:30:07;;;;;;;5.47;5.08;;;;;;;20.82;100.00;100234.50;1807244;77;21587;-87
2022/07/22 07:32:34;;;;;;;5.90;5.40;;;;;;;21.01;100.00;100230.84;1777894;78;21218;-87
2022/07/22 07:35:03;;;;;;;6.10;5.50;;;;;;;21.17;100.00;100229.73;1752988;80;21006;-86
2022/07/22 07:37:31;;;;;;;5.83;5.42;;;;;;;21.29;100.00;100233.45;1787952;79;21042;-88
2022/07/22 07:39:58;;;;;;;6.33;5.78;;;;;;;21.39;100.00;100241.88;1782343;80;21069;-86
2022/07/22 08:01:29;;;;;;;5.25;4.85;;;;;;;21.73;100.00;100242.88;1727363;78;21130;31
2022/07/22 08:11:24;;;;;;;;;;;;;;;22.00;100.00;100254.88;1748968;81;21024;-86
2022/07/22 08:13:53;;;;;;;4.75;4.45;;;;;;;22.17;100.00;100256.66;1742976;81;20138;-89
2022/07/22 08:16:40;;;;;;;4.60;4.30;;;;;;;22.40;100.00;100257.32;1766084;80;21097;-87
2022/07/22 08:19:07;;;;;;;5.37;4.95;;;;;;;22.63;100.00;100252.47;1773488;79;21269;-87
2022/07/22 08:21:36;;;;;;;5.28;4.80;;;;;;;22.60;100.00;100247.56;1749968;82;21048;-86
2022/07/22 08:24:20;;;;;;;4.78;4.37;;;;;;;22.42;100.00;100249.98;1748424;80;21069;-87
2022/07/22 08:26:47;;;;;;;6.28;3.90;;;;;;;22.20;100.00;100258.09;1729214;81;21865;-87
2022/07/22 08:29:14;;;;;;;4.92;4.42;;;;;;;22.01;100.00;100253.05;1749886;82;21045;-86
2022/07/22 08:31:41;;;;;;;4.62;4.22;;;;;;;21.93;100.00;100258.02;1749931;81;21152;-86
2022/07/22 08:34:10;;;;;;;5.58;4.30;;;;;;;22.06;100.00;100251.94;1746499;81;21037;-86
2022/07/22 08:36:38;;;;;;;5.03;4.53;;;;;;;22.20;100.00;100261.55;1750009;81;21010;-85
2022/07/22 08:39:05;;;;;;;4.60;4.30;;;;;;;22.37;100.00;100251.39;1761440;80;21021;-87
2022/07/22 08:41:38;;;;;;;5.25;3.90;;;;;;;22.60;100.00;100252.03;1728973;80;21061;-89
2022/07/22 08:44:08;;;;;;;4.55;4.15;;;;;;;22.82;100.00;100256.14;1730497;80;21143;-86
2022/07/22 08:46:37;;;;;;;4.67;4.28;;;;;;;22.98;100.00;100250.91;1747168;80;21120;-86
2022/07/22 08:49:20;;;;;;;4.92;4.40;;;;;;;23.07;100.00;100253.34;1713054;80;21092;-86
2022/07/22 08:52:01;;;;;;;;;;;;;;;23.02;100.00;100254.48;1770263;79;21106;-87
2022/07/22 08:54:32;;;;;;;6.28;4.42;;;;;;;22.96;100.00;100243.64;1755954;80;20165;-86
2022/07/22 08:57:02;;;;;;;6.78;4.28;;;;;;;22.88;100.00;100253.15;1757134;80;21035;-86
2022/07/22 08:59:30;;;;;;;4.75;4.20;;;;;;;22.76;100.00;100247.64;1752302;80;20952;-86
2022/07/22 09:02:07;;;;;;;6.12;4.72;;;;;;;22.72;100.00;100246.93;1760652;80;21058;-85
2022/07/22 09:05:03;;;;;;;4.40;4.10;;;;;;;22.66;100.00;100250.72;1771427;80;21081;-85
2022/07/22 09:07:34;;;;;;;4.97;4.58;;;;;;;22.59;100.00;100248.58;1757802;80;21682;-86
2022/07/22 09:10:19;;;;;;;4.08;3.77;;;;;;;22.85;100.00;100250.92;1753329;80;21157;-87
2022/07/22 09:13:09;;;;;;;4.47;4.08;;;;;;;23.26;100.00;100251.20;1723742;81;21020;-87
2022/07/22 09:15:51;;;;;;;4.22;3.92;;;;;;;23.59;100.00;100245.47;1744053;80;21080;-87
2022/07/22 09:18:35;;;;;;;4.35;4.03;;;;;;;23.79;100.00;100245.38;1680681;83;21033;-87
2022/07/22 09:21:11;;;;;;;5.75;4.30;;;;;;;23.88;100.00;100245.94;1740450;79;21556;-88
2022/07/22 09:23:42;;;;;;;4.50;4.05;;;;;;;23.71;100.00;100253.59;1747891;81;21239;-86
2022/07/22 09:26:30;;;;;;;4.12;3.90;;;;;;;23.68;100.00;100247.36;1728121;82;21061;-85
2022/07/22 09:28:59;;;;;;;4.40;3.85;;;;;;;23.85;100.00;100253.83;1727503;81;20974;-86
2022/07/22 09:31:32;;;;;;;4.33;4.00;;;;;;;24.15;100.00;100254.64;1737369;81;21064;-87
2022/07/22 09:34:34;;;;;;;4.62;4.33;;;;;;;24.28;100.00;100251.58;1721355;82;21009;-87
2022/07/22 09:37:03;;;;;;;4.67;4.15;;;;;;;24.12;100.00;100259.05;1713881;83;22110;-87
2022/07/22 09:39:33;;;;;;;4.35;4.05;;;;;;;23.70;100.00;100255.94;1730026;81;21070;-86
2022/07/22 09:42:06;;;;;;;4.78;4.40;;;;;;;23.48;100.00;100255.71;1739661;81;21036;-88
2022/07/22 09:44:35;;;;;;;4.45;4.05;;;;;;;23.58;100.00;100253.13;1762646;81;21080;-87
2022/07/22 09:47:29;;;;;;;4.28;3.98;;;;;;;23.88;100.00;100257.90;1757880;81;21573;-86
2022/07/22 09:50:08;;;;;;;4.58;4.17;;;;;;;24.13;100.00;100257.19;1731197;80;21203;-87
2022/07/22 09:52:41;;;;;;;4.58;3.92;;;;;;;24.18;100.00;100253.39;1747060;81;21033;-86
2022/07/22 09:55:11;;;;;;;4.55;4.20;;;;;;;23.98;100.00;100261.48;1745311;80;21558;-87
2022/07/22 09:57:40;;;;;;;4.70;4.30;;;;;;;23.93;100.00;100254.11;1753557;80;21115;-87
2022/07/22 10:00:09;;;;;;;4.50;4.10;;;;;;;23.99;100.00;100253.81;1773218;80;21018;-88
2022/07/22 10:02:56;;;;;;;5.33;4.30;;;;;;;23.86;100.00;100257.31;1770909;80;22003;-89
2022/07/22 10:05:29;;;;;;;4.33;4.03;;;;;;;23.56;100.00;100254.67;1769939;80;21072;-87
2022/07/22 10:07:59;;;;;;;4.25;3.95;;;;;;;23.23;100.00;100254.27;1764659;80;21029;-86
2022/07/22 10:10:29;;;;;;;4.58;4.00;;;;;;;22.85;100.00;100272.96;1758682;81;21613;-87
2022/07/22 10:13:00;;;;;;;3.60;3.40;;;;;;;22.56;100.00;100270.72;1753696;81;21004;-86
2022/07/22 10:15:31;;;;;;;4.67;3.85;;;;;;;22.36;100.00;100275.45;1754371;80;22220;-87
2022/07/22 10:18:04;;;;;;;;;;;;;;;22.21;100.00;100269.02;1759833;81;21087;-86
2022/07/22 10:20:32;;;;;;;8.60;3.65;;;;;;;22.07;100.00;100277.43;1770945;80;20163;-86
2022/07/22 10:23:07;;;;;;;4.45;3.98;;;;;;;21.99;100.00;100281.06;1770916;80;21098;-86
2022/07/22 10:25:59;;;;;;;4.30;4.00;;;;;;;22.00;100.00;100285.88;1770767;79;21061;-89
2022/07/22 10:28:34;;;;;;;4.42;4.03;;;;;;;21.99;100.00;100280.27;1764364;80;21131;-87
2022/07/22 10:31:24;;;;;;;6.40;4.03;;;;;;;21.98;100.00;100285.25;1766178;80;21088;-86
2022/07/22 10:33:56;;;;;;;4.83;4.37;;;;;;;22.01;100.00;100281.69;1756833;80;21056;-85
2022/07/22 10:36:42;;;;;;;4.40;4.00;;;;;;;22.03;100.00;100267.73;1768782;80;21032;-85
2022/07/22 10:39:13;;;;;;;4.60;4.30;;;;;;;22.15;100.00;100281.75;1757843;81;21048;-86
2022/07/22 10:41:44;;;;;;;4.50;4.10;;;;;;;22.48;100.00;100263.27;1737118;81;21251;-84
2022/07/22 10:44:12;;;;;;;4.28;3.98;;;;;;;22.87;100.00;100263.48;1765184;80;21016;-86
2022/07/22 10:46:58;;;;;;;3.77;3.58;;;;;;;23.29;100.00;100266.70;1756555;80;21019;-85
2022/07/22 10:49:26;;;;;;;5.42;3.62;;;;;;;23.81;100.00;100267.25;1748732;80;21494;-84
2022/07/22 10:52:11;;;;;;;3.90;3.60;;;;;;;24.10;100.00;100267.24;1772341;80;21498;-84
2022/07/22 10:55:17;;;;;;;3.50;3.20;;;;;;;24.12;100.00;100264.89;1750964;80;21919;-86
2022/07/22 10:57:44;;;;;;;3.70;3.45;;;;;;;23.96;100.00;100268.32;1757682;80;21516;-86
2022/07/22 11:00:13;;;;;;;4.05;3.72;;;;;;;23.60;100.00;100283.78;1725543;82;21018;-85
2022/07/22 11:02:41;;;;;;;4.10;3.70;;;;;;;23.31;100.00;100273.16;1753268;81;20986;-86
2022/07/22 11:05:09;;;;;;;4.80;3.52;;;;;;;23.01;100.00;100284.18;1752935;81;21070;-85
2022/07/22 11:07:46;;;;;;;4.15;3.62;;;;;;;22.84;100.00;100294.41;1755936;80;21880;-86
2022/07/22 11:10:16;;;;;;;3.52;3.15;;;;;;;22.93;100.00;100277.27;1777685;79;21030;-87
2022/07/22 11:12:44;;;;;;;3.77;3.40;;;;;;;23.33;100.00;100279.58;1740896;80;21080;-86
2022/07/22 11:15:12;;;;;;;3.80;3.50;;;;;;;23.82;100.00;100276.86;1732691;81;21937;-87
2022/07/22 11:17:40;;;;;;;3.85;3.55;;;;;;;24.29;100.00;100283.27;1691352;83;21017;-86
2022/07/22 11:20:15;;;;;;;6.15;3.40;;;;;;;24.61;100.00;100289.91;1694868;83;21245;-85
2022/07/22 11:22:46;;;;;;;4.67;3.37;;;;;;;24.55;100.00;100293.45;1704648;82;21106;-84
2022/07/22 11:25:16;;;;;;;5.03;3.30;;;;;;;24.43;100.00;100284.01;1723326;82;21051;-88
2022/07/22 11:27:52;;;;;;;6.42;3.30;;;;;;;24.42;100.00;100286.36;1722926;81;21527;-87
2022/07/22 11:30:21;;;;;;;3.37;3.12;;;;;;;24.49;100.00;100283.14;1755026;81;21040;-86
2022/07/22 11:32:49;;;;;;;7.37;3.80;;;;;;;24.68;100.00;100280.59;1752217;81;21134;-87
2022/07/22 11:35:16;;;;;;;3.95;3.65;;;;;;;24.58;100.00;100281.84;1745981;80;21046;-86
2022/07/22 11:37:43;;;;;;;4.17;3.80;;;;;;;24.19;100.00;100285.08;1726768;81;21073;-87
2022/07/22 11:40:12;;;;;;;6.47;3.87;;;;;;;23.82;100.00;100294.14;1731877;82;21096;-85
2022/07/22 11:42:40;;;;;;;4.10;3.70;;;;;;;23.53;100.00;100286.17;1739809;80;20949;-86
2022/07/22 11:45:08;;;;;;;4.03;3.58;;;;;;;23.41;100.00;100304.06;1756754;80;21221;-86
2022/07/22 11:47:35;;;;;;;3.87;3.58;;;;;;;23.34;100.00;100301.14;1769616;79;21094;-87
2022/07/22 11:50:03;;;;;;;4.45;4.05;;;;;;;23.14;100.00;100293.48;1755820;80;21152;-84
2022/07/22 11:52:30;;;;;;;5.00;4.05;;;;;;;22.93;100.00;100297.17;1764138;79;21428;-85
2022/07/22 11:54:57;;;;;;;4.90;4.08;;;;;;;22.76;100.00;100301.25;1774469;80;21100;-84
2022/07/22 11:57:25;;;;;;;4.50;4.05;;;;;;;22.62;100.00;100299.09;1761285;79;21115;-86
2022/07/22 11:59:52;;;;;;;4.42;4.10;;;;;;;22.50;100.00;100301.52;1754809;80;21084;-85
2022/07/22 12:02:21;;;;;;;4.85;4.37;;;;;;;22.41;100.00;100293.44;1758871;80;21046;-85
2022/07/22 12:04:49;;;;;;;4.47;4.08;;;;;;;22.35;100.00;100295.05;1765649;79;21045;-86
2022/07/22 12:07:17;;;;;;;5.00;4.60;;;;;;;22.34;100.00;100292.09;1765374;79;21051;-86
2022/07/22 12:09:45;;;;;;;4.05;3.72;;;;;;;22.35;100.00;100297.19;1767640;80;21238;-86